Time;durP1;ratioP1;P1;durP2;ratioP2;P2;SDS_P1;SDS_P2;PMS_P1;PMS_P2;Temp;Humidity;BMP_temperature;BMP_pressure;BME280_temperature;BME280_humidity;BME280_pressure;Samples;Min_cycle;Max_cycle;Signal;HPM_P1;HPM_P2
2022/11/15 00:00:29;;;;;;;3.30;3.00;;;17.90;72.00;;;;;;4989711;28;20092;-12
2022/11/15 00:02:55;;;;;;;3.28;3.08;;;17.90;71.90;;;;;;4995228;28;20045;-13
2022/11/15 00:05:21;;;;;;;3.15;2.95;;;17.90;71.60;;;;;;4990913;28;20049;-13
2022/11/15 00:07:46;;;;;;;3.13;2.83;;;17.90;71.90;;;;;;4985885;28;20046;-22
2022/11/15 00:10:12;;;;;;;2.83;2.63;;;17.90;71.60;;;;;;4986793;28;20046;-13
2022/11/15 00:12:37;;;;;;;3.20;2.90;;;18.00;71.40;;;;;;4991897;28;20121;-14
2022/11/15 00:15:03;;;;;;;3.38;3.03;;;17.90;71.50;;;;;;4989216;28;20061;-25
2022/11/15 00:17:29;;;;;;;4.03;3.72;;;17.90;71.90;;;;;;4991537;28;20070;-25
2022/11/15 00:19:55;;;;;;;3.47;3.20;;;17.90;71.90;;;;;;4994139;28;21185;-14
2022/11/15 00:22:20;;;;;;;3.53;3.22;;;17.90;71.60;;;;;;4993128;28;20048;-13
2022/11/15 00:24:46;;;;;;;3.10;2.90;;;17.80;72.00;;;;;;4989992;28;20038;-13
2022/11/15 00:27:11;;;;;;;2.55;2.35;;;17.90;71.90;;;;;;4991118;28;20101;-13
2022/11/15 00:29:38;;;;;;;2.40;2.20;;;17.90;71.50;;;;;;4989019;28;20498;-13
2022/11/15 00:32:04;;;;;;;3.40;3.10;;;17.90;71.60;;;;;;4993383;28;20046;-13
2022/11/15 00:34:30;;;;;;;3.15;2.85;;;17.90;71.70;;;;;;4990581;28;20046;-14
2022/11/15 00:36:56;;;;;;;2.88;2.63;;;17.90;71.30;;;;;;4989911;28;20046;-12
2022/11/15 00:39:21;;;;;;;2.60;2.40;;;17.80;71.60;;;;;;4993366;28;20042;-12
2022/11/15 00:41:47;;;;;;;3.75;2.90;;;17.90;71.70;;;;;;4995809;28;20042;-13
2022/11/15 00:44:12;;;;;;;2.60;2.40;;;17.90;71.50;;;;;;5004600;28;20053;-12
2022/11/15 00:46:38;;;;;;;2.88;2.65;;;17.80;71.70;;;;;;5005425;28;20117;-22
2022/11/15 00:49:03;;;;;;;2.25;2.05;;;17.80;71.80;;;;;;5000830;28;20580;-12
2022/11/15 00:51:29;;;;;;;2.92;2.22;;;17.80;71.60;;;;;;5001426;28;20037;-12
2022/11/15 00:53:55;;;;;;;3.80;2.35;;;17.80;71.60;;;;;;5008184;28;20046;-12
2022/11/15 00:56:20;;;;;;;2.75;2.40;;;17.80;71.70;;;;;;5014376;28;20085;-14
2022/11/15 00:58:46;;;;;;;2.80;2.53;;;17.80;71.60;;;;;;5008365;28;20047;-12
2022/11/15 01:01:12;;;;;;;2.10;1.90;;;17.80;71.70;;;;;;4993339;28;20787;-14
2022/11/15 01:03:39;;;;;;;2.70;2.50;;;17.80;71.60;;;;;;5001023;28;20054;-12
2022/11/15 01:06:04;;;;;;;2.55;2.20;;;17.90;71.40;;;;;;5016429;28;20044;-12
2022/11/15 01:08:30;;;;;;;2.20;2.00;;;17.80;71.60;;;;;;4991033;28;20133;-18
2022/11/15 01:11:04;;;;;;;2.20;2.08;;;17.80;71.60;;;;;;4996357;28;20042;-12
2022/11/15 01:13:31;;;;;;;2.45;2.25;;;17.80;71.50;;;;;;5001008;28;20132;-12
2022/11/15 01:15:56;;;;;;;2.60;2.30;;;17.80;71.70;;;;;;5005579;28;20038;-12
2022/11/15 01:18:22;;;;;;;2.10;1.98;;;17.70;71.70;;;;;;5004800;28;20087;-14
2022/11/15 01:20:48;;;;;;;2.38;2.20;;;17.70;71.80;;;;;;4992841;28;20058;-12
2022/11/15 01:23:14;;;;;;;1.80;1.70;;;17.70;71.60;;;;;;5004993;28;20502;-12
2022/11/15 01:25:39;;;;;;;2.08;1.95;;;17.70;71.70;;;;;;4993654;28;20041;-12
2022/11/15 01:28:05;;;;;;;2.20;2.03;;;17.70;72.60;;;;;;4991810;28;20416;-12
2022/11/15 01:30:30;;;;;;;3.95;2.10;;;17.70;71.90;;;;;;4997286;28;20038;-12
2022/11/15 01:32:56;;;;;;;2.30;2.10;;;17.70;71.90;;;;;;4996241;28;20098;-12
2022/11/15 01:35:21;;;;;;;2.33;1.73;;;17.70;71.90;;;;;;4994638;28;20046;-12
2022/11/15 01:37:47;;;;;;;1.83;1.70;;;17.60;72.00;;;;;;4998709;28;20410;-12
2022/11/15 01:40:13;;;;;;;2.30;2.20;;;17.60;72.20;;;;;;5013612;28;20046;-11
2022/11/15 01:42:38;;;;;;;1.92;1.83;;;17.60;72.10;;;;;;5018770;28;20060;-12
2022/11/15 01:45:04;;;;;;;1.90;1.70;;;17.60;72.00;;;;;;5008304;28;20041;-12
2022/11/15 01:47:44;;;;;;;2.22;1.83;;;17.60;71.90;;;;;;5004263;28;20052;-11
2022/11/15 01:50:12;;;;;;;1.85;1.75;;;17.70;71.90;;;;;;5029342;28;20046;-14
2022/11/15 01:52:38;;;;;;;2.03;1.92;;;17.70;71.70;;;;;;5011735;28;20100;-11
2022/11/15 01:55:21;;;;;;;2.13;1.92;;;17.70;71.90;;;;;;5018910;28;20050;-12
2022/11/15 01:57:49;;;;;;;1.70;1.60;;;17.70;71.90;;;;;;5008468;28;20045;-13
2022/11/15 02:00:15;;;;;;;1.73;1.63;;;17.60;71.90;;;;;;4981376;28;20043;-12
2022/11/15 02:02:41;;;;;;;1.67;1.58;;;17.60;72.30;;;;;;5001212;28;20045;-13
2022/11/15 02:05:07;;;;;;;1.67;1.58;;;17.60;72.10;;;;;;5007829;28;20057;-12
2022/11/15 02:07:34;;;;;;;1.52;1.42;;;17.60;72.90;;;;;;5018571;28;20041;-12
2022/11/15 02:10:06;;;;;;;1.70;1.60;;;17.60;72.30;;;;;;5012874;28;20041;-11
2022/11/15 02:12:31;;;;;;;2.10;1.50;;;17.60;72.30;;;;;;4997747;28;20061;-12
2022/11/15 02:14:57;;;;;;;1.70;1.60;;;17.60;72.50;;;;;;5008526;28;20045;-12
2022/11/15 02:17:40;;;;;;;1.52;1.42;;;17.60;72.30;;;;;;5008630;28;20038;-13
2022/11/15 02:20:28;;;;;;;1.67;1.58;;;17.60;72.60;;;;;;4995926;28;20042;-12
2022/11/15 02:23:21;;;;;;;2.15;1.80;;;17.60;72.30;;;;;;5013388;28;20033;-12
2022/11/15 02:26:13;;;;;;;1.77;1.67;;;17.70;72.20;;;;;;5005859;28;20064;-12
2022/11/15 02:28:57;;;;;;;1.88;1.55;;;17.70;72.30;;;;;;5001983;28;20068;-13
2022/11/15 02:31:36;;;;;;;1.55;1.45;;;17.60;72.20;;;;;;5011232;28;20038;-12
2022/11/15 02:34:32;;;;;;;1.30;1.20;;;17.60;72.50;;;;;;4990853;28;20129;-12
2022/11/15 02:37:11;;;;;;;1.88;1.40;;;17.50;72.20;;;;;;4994404;28;20042;-12
2022/11/15 02:39:55;;;;;;;1.70;1.60;;;17.50;72.20;;;;;;5023201;28;20132;-12
2022/11/15 02:45:17;;;;;;;1.45;1.35;;;17.50;72.60;;;;;;5030235;28;20064;-19
2022/11/15 02:47:43;;;;;;;1.73;1.58;;;17.60;72.30;;;;;;5010543;28;20034;-12
2022/11/15 02:50:10;;;;;;;1.65;1.38;;;17.60;72.60;;;;;;5004335;28;20087;-12
2022/11/15 02:52:36;;;;;;;1.40;1.30;;;17.60;72.30;;;;;;5015212;28;20034;-12
2022/11/15 02:55:02;;;;;;;1.48;1.30;;;17.50;72.20;;;;;;5016648;28;20047;-12
2022/11/15 02:57:33;;;;;;;1.25;1.15;;;17.50;72.30;;;;;;5007922;28;20433;-12
2022/11/15 03:00:18;;;;;;;1.33;1.23;;;17.50;72.60;;;;;;5014789;28;20485;-12
2022/11/15 03:02:49;;;;;;;1.40;1.30;;;17.50;72.40;;;;;;4997450;28;20045;-12
2022/11/15 03:05:15;;;;;;;1.67;1.45;;;17.50;72.30;;;;;;4992564;28;20181;-12
2022/11/15 03:08:11;;;;;;;1.48;1.38;;;17.60;72.30;;;;;;5004796;28;20456;-18
2022/11/15 03:10:48;;;;;;;1.23;1.13;;;17.60;72.20;;;;;;5004396;28;20093;-12
2022/11/15 03:13:27;;;;;;;1.20;1.10;;;17.60;72.10;;;;;;5011705;28;20502;-14
2022/11/15 03:16:19;;;;;;;1.25;1.15;;;17.50;72.20;;;;;;5010447;28;20046;-12
2022/11/15 03:18:55;;;;;;;1.35;1.13;;;17.50;72.20;;;;;;5013097;28;20145;-12
2022/11/15 03:21:20;;;;;;;1.20;1.10;;;17.50;72.30;;;;;;5009843;28;20510;-12
2022/11/15 03:23:46;;;;;;;1.42;1.25;;;17.50;72.20;;;;;;5016016;28;20033;-12
2022/11/15 03:26:12;;;;;;;0.98;0.90;;;17.40;72.30;;;;;;4990268;28;20468;-12
2022/11/15 03:28:44;;;;;;;1.05;1.00;;;17.40;72.60;;;;;;4993241;28;20085;-12
2022/11/15 03:33:55;;;;;;;1.20;1.10;;;17.40;72.60;;;;;;4992651;28;20124;-12
2022/11/15 03:36:21;;;;;;;1.08;0.98;;;17.40;72.60;;;;;;4991005;28;20086;-12
2022/11/15 03:38:47;;;;;;;0.80;0.80;;;17.40;72.40;;;;;;5004028;28;20053;-12
2022/11/15 03:41:23;;;;;;;0.80;0.80;;;17.40;72.50;;;;;;5008661;28;20046;-12
2022/11/15 03:44:10;;;;;;;1.20;0.90;;;17.40;72.60;;;;;;4994194;28;20057;-12
2022/11/15 03:46:49;;;;;;;1.20;0.82;;;17.40;72.60;;;;;;5010491;28;20671;-12
2022/11/15 03:49:17;;;;;;;0.85;0.75;;;17.40;72.50;;;;;;4995240;28;20129;-13
2022/11/15 03:51:42;;;;;;;0.70;0.70;;;17.40;72.50;;;;;;4995375;28;20045;-12
2022/11/15 03:54:08;;;;;;;0.93;0.93;;;17.40;72.50;;;;;;4998281;28;20041;-13
2022/11/15 03:56:34;;;;;;;1.10;1.00;;;17.40;72.50;;;;;;5005035;28;20080;-23
2022/11/15 03:58:59;;;;;;;1.23;1.13;;;17.40;72.40;;;;;;5009100;28;20065;-12
2022/11/15 04:01:25;;;;;;;0.90;0.85;;;17.40;73.10;;;;;;5014557;28;20498;-12
2022/11/15 04:03:50;;;;;;;1.30;0.93;;;17.40;72.50;;;;;;5005728;28;20041;-12
2022/11/15 04:06:16;;;;;;;0.85;0.75;;;17.40;72.50;;;;;;4998241;28;20141;-12
2022/11/15 04:08:41;;;;;;;0.90;0.90;;;17.40;72.50;;;;;;5013078;28;20055;-12
2022/11/15 04:11:07;;;;;;;1.20;0.93;;;17.40;72.30;;;;;;4991288;28;20046;-12
2022/11/15 04:13:33;;;;;;;0.80;0.80;;;17.40;72.40;;;;;;4995521;28;20529;-12
2022/11/15 04:15:58;;;;;;;1.33;0.80;;;17.40;72.30;;;;;;5004237;28;20559;-12
2022/11/15 04:18:24;;;;;;;0.68;0.68;;;17.40;72.30;;;;;;5006063;28;20099;-13
2022/11/15 04:26:19;;;;;;;1.05;0.95;;;17.40;72.30;;;;;;5001116;28;20045;-12
2022/11/15 04:31:29;;;;;;;1.00;0.68;;;17.40;72.20;;;;;;4994726;28;20045;-12
2022/11/15 04:33:54;;;;;;;0.80;0.80;;;17.40;72.30;;;;;;4996902;28;20415;-11
2022/11/15 04:39:04;;;;;;;0.88;0.88;;;17.40;72.30;;;;;;5016145;28;20057;-12
2022/11/15 04:41:30;;;;;;;0.95;0.90;;;17.40;72.60;;;;;;5009850;28;20045;-12
2022/11/15 04:43:55;;;;;;;0.75;0.68;;;17.40;72.40;;;;;;5014262;28;20056;-11
2022/11/15 04:46:22;;;;;;;0.60;0.60;;;17.40;72.20;;;;;;5006533;28;20069;-14
2022/11/15 04:48:47;;;;;;;0.80;0.80;;;17.40;72.40;;;;;;5000781;28;20141;-12
2022/11/15 04:51:13;;;;;;;0.88;0.77;;;17.40;72.20;;;;;;5010087;28;20179;-13
2022/11/15 04:53:38;;;;;;;0.75;0.60;;;17.40;72.20;;;;;;5001496;28;20047;-12
2022/11/15 04:56:04;;;;;;;1.60;0.68;;;17.40;72.20;;;;;;4991944;28;20521;-12
2022/11/15 04:58:30;;;;;;;1.23;0.90;;;17.40;72.20;;;;;;4992688;28;20133;-12
2022/11/15 05:00:55;;;;;;;0.80;0.80;;;17.40;72.50;;;;;;4995034;28;20050;-12
2022/11/15 05:06:05;;;;;;;1.13;0.80;;;17.40;72.50;;;;;;5011240;28;20124;-11
2022/11/15 05:08:31;;;;;;;0.68;0.68;;;17.40;72.20;;;;;;5011610;28;20102;-12
2022/11/15 05:10:56;;;;;;;0.68;0.68;;;17.40;72.40;;;;;;5006973;28;20030;-12
2022/11/15 05:13:22;;;;;;;0.85;0.60;;;17.40;72.30;;;;;;5000196;28;20518;-12
2022/11/15 05:15:47;;;;;;;1.00;0.90;;;17.40;72.20;;;;;;5007835;28;20049;-12
2022/11/15 05:18:13;;;;;;;0.60;0.60;;;17.40;72.50;;;;;;5010555;28;20057;-12
2022/11/15 05:20:39;;;;;;;1.10;0.90;;;17.40;72.40;;;;;;5011458;28;20053;-16
2022/11/15 05:23:04;;;;;;;0.68;0.68;;;17.40;72.40;;;;;;4994999;28;20767;-12
2022/11/15 05:25:30;;;;;;;0.93;0.90;;;17.40;72.20;;;;;;4993577;28;20068;-12
2022/11/15 05:27:55;;;;;;;0.70;0.70;;;17.40;72.60;;;;;;4994379;28;20046;-12
2022/11/15 05:30:21;;;;;;;0.77;0.70;;;17.40;72.30;;;;;;4993363;28;20041;-12
2022/11/15 05:32:46;;;;;;;0.73;0.65;;;17.40;72.10;;;;;;4998330;28;20070;-12
2022/11/15 05:35:32;;;;;;;0.80;0.80;;;17.40;72.70;;;;;;5012370;28;20073;-12
2022/11/15 05:37:58;;;;;;;0.68;0.68;;;17.40;72.30;;;;;;5026241;28;20092;-12
2022/11/15 05:40:23;;;;;;;0.70;0.60;;;17.30;72.70;;;;;;5012791;28;20549;-12
2022/11/15 05:42:49;;;;;;;0.70;0.60;;;17.40;72.40;;;;;;5013481;28;20037;-12
2022/11/15 05:45:15;;;;;;;0.70;0.70;;;17.40;72.60;;;;;;5010383;28;20818;-12
2022/11/15 05:47:40;;;;;;;0.50;0.50;;;17.40;72.80;;;;;;5010697;28;20045;-12
2022/11/15 05:50:06;;;;;;;0.75;0.75;;;17.40;72.70;;;;;;5000354;28;20074;-12
2022/11/15 05:52:33;;;;;;;0.55;0.50;;;17.40;72.70;;;;;;5019727;28;20041;-12
2022/11/15 05:54:59;;;;;;;0.80;0.63;;;17.40;72.60;;;;;;5014624;28;20068;-12
2022/11/15 05:57:25;;;;;;;0.60;0.60;;;17.30;72.60;;;;;;5007284;28;20586;-13
2022/11/15 05:59:50;;;;;;;1.42;0.60;;;17.40;72.50;;;;;;5008770;28;20201;-13
2022/11/15 06:02:16;;;;;;;0.52;0.52;;;17.30;72.40;;;;;;5011330;28;20049;-13
2022/11/15 06:04:41;;;;;;;0.65;0.60;;;17.40;72.60;;;;;;5010164;28;20050;-13
2022/11/15 06:07:07;;;;;;;0.55;0.55;;;17.30;72.80;;;;;;5014153;28;20040;-13
2022/11/15 06:09:32;;;;;;;0.63;0.50;;;17.30;72.80;;;;;;5007001;28;20038;-20
2022/11/15 06:11:58;;;;;;;1.17;0.70;;;17.40;72.50;;;;;;5012717;28;20079;-13
2022/11/15 06:14:23;;;;;;;0.60;0.60;;;17.50;72.10;;;;;;5011060;28;20042;-13
2022/11/15 06:16:49;;;;;;;1.42;1.27;;;17.60;72.30;;;;;;5013444;28;20052;-13
2022/11/15 06:19:15;;;;;;;1.42;1.33;;;17.60;72.30;;;;;;5011820;28;20077;-13
2022/11/15 06:21:40;;;;;;;1.58;1.48;;;17.70;71.90;;;;;;5018818;28;20573;-14
2022/11/15 06:24:06;;;;;;;1.90;1.80;;;17.70;72.30;;;;;;5002630;28;20061;-14
2022/11/15 06:26:31;;;;;;;1.98;1.88;;;17.70;72.40;;;;;;5014914;28;20095;-13
2022/11/15 06:28:57;;;;;;;2.20;1.55;;;17.80;73.30;;;;;;5003911;28;20100;-12
2022/11/15 06:31:23;;;;;;;2.60;1.88;;;17.60;73.00;;;;;;4992675;28;20130;-13
2022/11/15 06:33:49;;;;;;;6.90;2.17;;;17.60;73.90;;;;;;4986760;28;20465;-13
2022/11/15 06:36:16;;;;;;;1.80;1.70;;;17.70;73.50;;;;;;4995839;28;20387;-13
2022/11/15 06:38:42;;;;;;;2.33;2.13;;;17.80;73.00;;;;;;4993593;28;20066;-13
2022/11/15 06:41:09;;;;;;;4.05;1.95;;;17.70;73.20;;;;;;4995954;28;20034;-18
2022/11/15 06:43:34;;;;;;;2.03;1.77;;;17.80;72.80;;;;;;4994655;28;20104;-13
2022/11/15 06:46:01;;;;;;;3.15;1.77;;;17.80;73.00;;;;;;4992385;28;20042;-13
2022/11/15 06:48:27;;;;;;;1.67;1.58;;;17.90;72.60;;;;;;5009097;28;20042;-23
2022/11/15 06:50:53;;;;;;;2.95;1.50;;;17.80;72.40;;;;;;5008169;28;20103;-15
2022/11/15 06:53:19;;;;;;;1.73;1.63;;;17.80;72.70;;;;;;5008735;28;20109;-13
2022/11/15 06:55:44;;;;;;;2.47;1.48;;;17.70;73.30;;;;;;5015742;28;20065;-13
2022/11/15 06:58:10;;;;;;;4.85;1.40;;;17.70;73.10;;;;;;5012911;28;20046;-13
2022/11/15 07:00:35;;;;;;;1.40;1.30;;;17.70;74.20;;;;;;5006251;28;20694;-13
2022/11/15 07:03:01;;;;;;;1.40;1.30;;;17.70;73.30;;;;;;5009513;28;20049;-14
2022/11/15 07:05:27;;;;;;;1.58;1.48;;;17.70;73.50;;;;;;5007643;28;20038;-13
2022/11/15 07:07:53;;;;;;;1.52;1.42;;;17.90;73.00;;;;;;5003711;28;20042;-13
2022/11/15 07:10:19;;;;;;;1.30;1.15;;;18.00;72.50;;;;;;5009357;28;20084;-13
2022/11/15 07:12:50;;;;;;;1.30;1.30;;;18.00;72.90;;;;;;4986407;28;20039;-13
2022/11/15 07:15:16;;;;;;;2.40;1.55;;;17.90;72.70;;;;;;4989641;28;20053;-13
2022/11/15 07:17:42;;;;;;;1.35;1.25;;;17.90;72.70;;;;;;4634967;28;9999817;-13
2022/11/15 07:20:08;;;;;;;1.95;1.30;;;17.90;72.50;;;;;;4988997;28;20058;-13
2022/11/15 07:22:33;;;;;;;2.83;1.40;;;17.70;73.00;;;;;;4996828;28;20043;-13
2022/11/15 07:24:59;;;;;;;1.60;1.30;;;17.70;73.50;;;;;;4988252;28;20046;-13
2022/11/15 07:27:25;;;;;;;1.75;1.35;;;17.70;73.90;;;;;;4986894;28;20909;-13
2022/11/15 07:29:50;;;;;;;1.40;1.30;;;17.70;74.10;;;;;;5005148;28;20050;-13
2022/11/15 07:32:16;;;;;;;1.92;1.48;;;17.60;74.60;;;;;;5011420;28;20045;-13
2022/11/15 07:34:41;;;;;;;1.20;1.08;;;17.60;74.80;;;;;;5007536;28;20049;-13
2022/11/15 07:37:07;;;;;;;1.40;1.30;;;17.60;74.40;;;;;;5008957;28;20810;-13
2022/11/15 07:39:32;;;;;;;1.38;0.90;;;17.60;74.50;;;;;;4989918;28;20050;-13
2022/11/15 07:44:43;;;;;;;1.55;1.45;;;17.60;74.60;;;;;;5007504;28;20052;-13
2022/11/15 07:47:08;;;;;;;1.20;1.10;;;17.60;74.70;;;;;;5008688;28;20045;-13
2022/11/15 07:49:34;;;;;;;0.90;0.90;;;17.60;74.80;;;;;;5003339;28;20034;-13
2022/11/15 07:52:00;;;;;;;1.35;1.17;;;17.60;74.80;;;;;;5013478;28;20044;-13
2022/11/15 07:54:25;;;;;;;2.33;1.30;;;17.60;74.80;;;;;;5014647;28;20065;-13
2022/11/15 07:56:51;;;;;;;1.40;1.30;;;17.60;74.70;;;;;;4994685;28;20136;-13
2022/11/15 07:59:16;;;;;;;1.38;1.27;;;17.60;75.10;;;;;;5024115;28;20413;-15
2022/11/15 08:01:42;;;;;;;1.50;1.40;;;17.60;75.90;;;;;;5005370;28;20068;-13
2022/11/15 08:04:07;;;;;;;1.40;1.30;;;17.60;75.90;;;;;;5011318;28;20041;-13
2022/11/15 08:06:33;;;;;;;1.58;1.00;;;17.60;75.00;;;;;;5014040;28;20033;-13
2022/11/15 08:08:58;;;;;;;1.75;1.08;;;17.70;75.30;;;;;;4992824;28;20069;-13
2022/11/15 08:11:24;;;;;;;2.47;1.20;;;17.60;75.90;;;;;;5007144;28;20038;-13
2022/11/15 08:13:50;;;;;;;1.17;1.08;;;17.60;74.50;;;;;;5004580;28;20126;-13
2022/11/15 08:16:15;;;;;;;1.20;1.10;;;17.60;75.70;;;;;;5009831;28;20125;-13
2022/11/15 08:18:41;;;;;;;2.05;0.93;;;17.60;75.10;;;;;;5011023;28;20116;-13
2022/11/15 08:21:08;;;;;;;1.52;0.90;;;17.60;74.70;;;;;;5011747;28;20063;-13
2022/11/15 08:23:34;;;;;;;1.42;1.05;;;17.60;75.30;;;;;;5014349;28;20042;-15
2022/11/15 08:26:02;;;;;;;2.88;0.95;;;17.60;75.10;;;;;;5009414;28;20056;-12
2022/11/15 08:28:27;;;;;;;1.88;1.02;;;17.60;75.00;;;;;;5010270;28;20068;-12
2022/11/15 08:30:53;;;;;;;0.85;0.80;;;17.60;75.70;;;;;;5005246;28;20049;-12
2022/11/15 08:33:18;;;;;;;1.48;0.90;;;17.60;75.00;;;;;;5000932;28;20053;-13
2022/11/15 08:35:44;;;;;;;0.73;0.73;;;17.50;75.50;;;;;;5005231;28;20052;-12
2022/11/15 08:38:10;;;;;;;1.15;0.70;;;17.60;75.40;;;;;;5011561;28;20043;-12
2022/11/15 08:40:36;;;;;;;0.93;0.90;;;17.50;75.00;;;;;;5001311;28;20100;-13
2022/11/15 08:43:02;;;;;;;1.05;1.00;;;17.70;75.30;;;;;;4998521;28;20042;-12
2022/11/15 08:45:29;;;;;;;0.80;0.80;;;17.60;76.10;;;;;;4993810;28;20045;-13
2022/11/15 08:47:54;;;;;;;1.00;0.70;;;17.60;75.10;;;;;;4992443;28;20080;-13
2022/11/15 08:50:20;;;;;;;0.60;0.60;;;17.60;75.50;;;;;;4994084;28;20515;-12
2022/11/15 08:52:46;;;;;;;0.60;0.60;;;17.50;75.00;;;;;;4994902;28;20426;-13
2022/11/15 08:55:12;;;;;;;0.73;0.68;;;17.50;74.90;;;;;;4996636;28;20576;-13
2022/11/15 08:57:37;;;;;;;0.60;0.60;;;17.50;74.80;;;;;;4989634;28;20059;-12
2022/11/15 09:00:03;;;;;;;0.70;0.70;;;17.60;74.80;;;;;;4991228;28;20163;-13
2022/11/15 09:02:29;;;;;;;1.17;0.73;;;17.60;74.90;;;;;;5004961;28;20029;-13
2022/11/15 09:04:54;;;;;;;0.70;0.70;;;17.60;75.30;;;;;;5008908;28;20077;-13
2022/11/15 09:07:20;;;;;;;3.63;0.63;;;17.60;74.20;;;;;;5017494;28;20041;-13
2022/11/15 09:09:46;;;;;;;1.30;0.60;;;17.70;75.10;;;;;;5013941;28;20034;-12
2022/11/15 09:12:11;;;;;;;0.88;0.73;;;17.70;75.00;;;;;;5000113;28;20046;-13
2022/11/15 09:14:37;;;;;;;0.63;0.60;;;17.70;74.60;;;;;;4996007;28;20062;-13
2022/11/15 09:17:03;;;;;;;2.50;0.60;;;17.70;74.90;;;;;;4993034;28;20467;-13
2022/11/15 09:19:28;;;;;;;2.05;0.85;;;17.70;74.90;;;;;;4994360;28;20049;-12
2022/11/15 09:21:54;;;;;;;2.40;0.52;;;17.60;74.30;;;;;;5000135;28;20113;-13
2022/11/15 09:24:20;;;;;;;0.70;0.52;;;17.70;74.60;;;;;;4993838;28;20443;-12
2022/11/15 09:26:45;;;;;;;0.60;0.50;;;17.70;74.20;;;;;;5007105;28;20688;-13
2022/11/15 09:29:11;;;;;;;0.63;0.63;;;17.60;74.90;;;;;;5014771;28;20046;-13
2022/11/15 09:31:36;;;;;;;0.60;0.60;;;17.60;74.60;;;;;;5019113;28;20540;-13
2022/11/15 09:34:02;;;;;;;0.55;0.55;;;17.60;74.60;;;;;;5012877;28;20042;-12
2022/11/15 09:36:27;;;;;;;0.40;0.40;;;17.50;74.40;;;;;;5012985;28;20076;-13
2022/11/15 09:38:53;;;;;;;1.27;0.60;;;17.60;74.50;;;;;;5014914;28;20111;-13
2022/11/15 09:41:39;;;;;;;0.65;0.40;;;17.60;74.60;;;;;;5017663;28;20448;-13
2022/11/15 09:44:23;;;;;;;0.40;0.40;;;17.60;74.60;;;;;;5001586;28;20045;-12
2022/11/15 09:47:19;;;;;;;2.15;0.50;;;17.60;74.60;;;;;;5012421;28;20038;-13
2022/11/15 09:49:45;;;;;;;0.52;0.50;;;17.60;74.50;;;;;;5010336;28;20103;-15
2022/11/15 09:52:10;;;;;;;0.40;0.40;;;17.50;74.60;;;;;;4993843;28;20038;-13
2022/11/15 09:54:40;;;;;;;0.47;0.47;;;17.50;74.40;;;;;;5007671;28;20414;-12
2022/11/15 09:57:09;;;;;;;0.40;0.40;;;17.50;74.60;;;;;;5025343;28;20088;-12
2022/11/15 09:59:58;;;;;;;0.60;0.60;;;17.50;74.70;;;;;;5008964;28;20053;-13
2022/11/15 10:02:30;;;;;;;0.75;0.60;;;17.50;74.60;;;;;;5010136;28;20053;-13
2022/11/15 10:04:58;;;;;;;0.68;0.68;;;17.50;74.50;;;;;;4989746;28;20074;-12
2022/11/15 10:07:36;;;;;;;0.32;0.32;;;17.50;74.50;;;;;;4990483;28;21960;-13
2022/11/15 10:10:14;;;;;;;1.02;0.45;;;17.50;74.50;;;;;;5012403;28;20049;-14
2022/11/15 10:12:41;;;;;;;0.50;0.50;;;17.60;74.50;;;;;;5003240;28;20045;-13
2022/11/15 10:15:11;;;;;;;0.68;0.30;;;17.60;75.30;;;;;;5013513;28;20533;-12
2022/11/15 10:17:37;;;;;;;1.08;0.50;;;17.60;74.40;;;;;;5012618;28;20506;-12
2022/11/15 10:20:29;;;;;;;0.63;0.45;;;17.50;74.40;;;;;;5002890;28;20030;-12
2022/11/15 10:22:58;;;;;;;0.50;0.50;;;17.60;74.40;;;;;;5015423;28;20042;-13
2022/11/15 10:25:34;;;;;;;0.60;0.40;;;17.60;74.30;;;;;;5014049;28;20049;-13
2022/11/15 10:28:01;;;;;;;0.40;0.40;;;17.60;74.30;;;;;;5003844;28;20048;-12
2022/11/15 10:30:38;;;;;;;0.52;0.40;;;17.60;74.40;;;;;;4999594;28;20053;-12
2022/11/15 10:33:35;;;;;;;0.43;0.43;;;17.60;74.20;;;;;;4999145;28;20519;-13
2022/11/15 10:36:13;;;;;;;0.40;0.40;;;17.60;74.20;;;;;;5000813;28;20192;-12
2022/11/15 10:38:48;;;;;;;1.10;0.50;;;17.60;74.00;;;;;;4993923;28;20111;-13
2022/11/15 10:41:13;;;;;;;0.40;0.40;;;17.60;74.20;;;;;;4993915;28;23529;-13
2022/11/15 10:43:39;;;;;;;0.55;0.30;;;17.70;74.10;;;;;;5002482;28;20585;-17
2022/11/15 10:46:31;;;;;;;0.40;0.40;;;17.70;74.70;;;;;;5005878;28;20037;-14
2022/11/15 10:49:18;;;;;;;0.65;0.22;;;17.70;74.80;;;;;;5008383;28;20045;-13
2022/11/15 10:51:53;;;;;;;0.30;0.30;;;17.70;73.90;;;;;;5008103;28;20406;-13
2022/11/15 10:54:27;;;;;;;0.32;0.30;;;17.70;73.80;;;;;;5011662;28;20133;-13
2022/11/15 10:56:59;;;;;;;0.47;0.30;;;17.70;73.90;;;;;;5006972;28;20064;-12
2022/11/15 10:59:29;;;;;;;0.30;0.30;;;17.70;74.00;;;;;;4654344;28;10000648;-13
2022/11/15 11:01:55;;;;;;;0.40;0.30;;;17.70;73.60;;;;;;5009294;28;20150;-12
2022/11/15 11:04:23;;;;;;;0.35;0.22;;;17.80;73.30;;;;;;4658956;28;9999611;-13
2022/11/15 11:06:51;;;;;;;0.30;0.30;;;17.90;73.70;;;;;;5006746;28;20057;-13
2022/11/15 11:09:35;;;;;;;0.20;0.20;;;17.70;73.60;;;;;;5009382;28;20045;-13
2022/11/15 11:12:01;;;;;;;0.30;0.30;;;17.60;73.90;;;;;;5039774;28;20435;-13
2022/11/15 11:14:31;;;;;;;2.67;0.40;;;17.60;74.60;;;;;;5012264;28;20292;-13
2022/11/15 11:17:12;;;;;;;0.30;0.30;;;17.60;74.50;;;;;;5006244;28;20054;-13
2022/11/15 11:20:41;;;;;;;0.30;0.30;;;17.70;74.70;;;;;;5005937;28;20057;-12
2022/11/15 11:23:34;;;;;;;1.30;0.30;;;17.70;74.70;;;;;;4983009;28;20065;-13
2022/11/15 11:26:21;;;;;;;0.50;0.30;;;17.70;74.60;;;;;;4988586;28;20046;-13
2022/11/15 11:29:10;;;;;;;0.57;0.57;;;17.70;74.50;;;;;;5000074;28;20062;-13
2022/11/15 11:31:54;;;;;;;0.43;0.43;;;17.80;74.40;;;;;;4985718;28;20047;-13
2022/11/15 11:34:46;;;;;;;0.45;0.45;;;17.70;74.40;;;;;;4988899;28;20048;-12
2022/11/15 11:37:49;;;;;;;0.50;0.50;;;17.80;74.40;;;;;;4979146;28;20510;-13
2022/11/15 11:40:27;;;;;;;0.50;0.50;;;17.90;74.30;;;;;;4977126;28;20054;-12
2022/11/15 11:43:08;;;;;;;1.75;0.40;;;17.80;74.60;;;;;;4984924;28;20065;-13
2022/11/15 11:45:34;;;;;;;0.50;0.50;;;17.90;74.60;;;;;;4989280;28;20046;-13
2022/11/15 11:48:13;;;;;;;0.30;0.30;;;17.90;74.40;;;;;;4987116;28;20062;-13
2022/11/15 11:50:39;;;;;;;0.25;0.25;;;17.90;74.50;;;;;;4978856;28;20498;-13
2022/11/15 11:53:27;;;;;;;0.30;0.30;;;17.80;74.40;;;;;;4977020;28;20109;-13
2022/11/15 11:55:54;;;;;;;0.40;0.40;;;17.90;74.30;;;;;;4967700;28;20526;-13
2022/11/15 11:58:35;;;;;;;0.50;0.40;;;17.90;74.20;;;;;;4998741;28;20054;-13
2022/11/15 12:01:12;;;;;;;2.42;0.60;;;17.90;74.40;;;;;;4991045;28;20042;-14
2022/11/15 12:03:44;;;;;;;0.70;0.30;;;17.90;74.10;;;;;;4991099;28;20502;-13
2022/11/15 12:06:21;;;;;;;0.35;0.35;;;18.00;73.80;;;;;;4989343;28;20100;-13
2022/11/15 12:08:49;;;;;;;0.32;0.30;;;17.90;73.80;;;;;;4998924;28;20052;-16
2022/11/15 12:11:24;;;;;;;0.40;0.40;;;18.00;73.90;;;;;;5012377;28;20040;-13
2022/11/15 12:14:05;;;;;;;1.50;0.40;;;18.00;73.90;;;;;;4994906;28;20491;-13
2022/11/15 12:16:32;;;;;;;0.30;0.30;;;18.00;73.90;;;;;;5002392;28;20506;-12
2022/11/15 12:19:01;;;;;;;0.40;0.30;;;17.90;73.80;;;;;;4989553;28;20085;-12
2022/11/15 12:22:04;;;;;;;0.30;0.30;;;18.00;74.00;;;;;;4993431;28;20125;-22
2022/11/15 12:24:51;;;;;;;0.30;0.30;;;18.00;73.90;;;;;;5008213;28;20037;-12
2022/11/15 12:27:27;;;;;;;0.40;0.40;;;17.90;73.80;;;;;;5002350;28;20092;-12
2022/11/15 12:29:55;;;;;;;0.38;0.30;;;17.90;73.90;;;;;;5008102;28;20050;-14
2022/11/15 12:32:37;;;;;;;0.25;0.25;;;18.00;73.40;;;;;;5006318;28;20037;-13
2022/11/15 12:35:05;;;;;;;0.28;0.28;;;18.10;73.40;;;;;;4976783;28;20138;-12
2022/11/15 12:37:40;;;;;;;0.32;0.20;;;18.10;72.90;;;;;;4981584;28;20548;-12
2022/11/15 12:40:21;;;;;;;0.40;0.30;;;18.20;72.60;;;;;;4976724;28;20563;-12
2022/11/15 12:43:13;;;;;;;0.20;0.20;;;18.20;72.70;;;;;;4983246;28;20060;-12
2022/11/15 12:45:40;;;;;;;1.33;0.60;;;18.20;72.60;;;;;;4984416;28;20076;-21
2022/11/15 12:48:18;;;;;;;0.30;0.30;;;18.20;72.50;;;;;;5041576;28;20140;-21
2022/11/15 12:50:55;;;;;;;0.17;0.17;;;18.20;72.60;;;;;;5005888;28;20033;-22
2022/11/15 12:53:24;;;;;;;0.22;0.22;;;18.20;72.40;;;;;;4982624;28;20096;-21
2022/11/15 12:56:07;;;;;;;0.45;0.20;;;18.20;72.50;;;;;;4982992;28;20070;-25
2022/11/15 12:58:47;;;;;;;0.40;0.20;;;18.20;72.50;;;;;;4991267;28;20121;-21
2022/11/15 13:01:34;;;;;;;0.80;0.40;;;18.20;72.60;;;;;;4992119;28;20047;-21
2022/11/15 13:04:24;;;;;;;0.20;0.20;;;18.10;72.60;;;;;;4991286;28;20054;-21
2022/11/15 13:07:04;;;;;;;0.38;0.30;;;18.10;72.70;;;;;;5006661;28;20030;-21
2022/11/15 13:09:35;;;;;;;0.40;0.20;;;18.10;72.60;;;;;;4986349;28;20566;-21
2022/11/15 13:12:26;;;;;;;0.40;0.40;;;18.10;72.70;;;;;;4987743;28;20043;-20
2022/11/15 13:14:58;;;;;;;0.45;0.38;;;18.20;72.80;;;;;;4988706;28;20042;-21
2022/11/15 13:17:42;;;;;;;0.40;0.30;;;18.20;72.30;;;;;;4990547;28;20127;-21
2022/11/15 13:20:07;;;;;;;0.40;0.30;;;18.10;72.60;;;;;;4991579;28;20053;-21
2022/11/15 13:22:58;;;;;;;0.38;0.30;;;18.10;72.80;;;;;;4996275;28;20038;-22